sensor_id;sensor_type;location;lat;lon;timestamp;temperature;humidity
1025;DHT22;501;48.214;11.350;2024-01-07T00:00:06;3.30;65.00
1025;DHT22;501;48.214;11.350;2024-01-07T00:02:32;3.30;65.00
1025;DHT22;501;48.214;11.350;2024-01-07T00:04:57;3.30;65.40
1025;DHT22;501;48.214;11.350;2024-01-07T00:07:24;3.30;65.70
1025;DHT22;501;48.214;11.350;2024-01-07T00:09:51;3.30;65.40
1025;DHT22;501;48.214;11.350;2024-01-07T00:12:16;3.30;65.50
1025;DHT22;501;48.214;11.350;2024-01-07T00:14:42;3.30;65.50
1025;DHT22;501;48.214;11.350;2024-01-07T00:17:09;3.30;65.40
1025;DHT22;501;48.214;11.350;2024-01-07T00:19:35;3.30;66.00
1025;DHT22;501;48.214;11.350;2024-01-07T00:22:03;3.30;65.70
1025;DHT22;501;48.214;11.350;2024-01-07T00:24:28;3.30;65.70
1025;DHT22;501;48.214;11.350;2024-01-07T00:26:55;3.30;65.60
1025;DHT22;501;48.214;11.350;2024-01-07T00:29:21;3.30;65.20
1025;DHT22;501;48.214;11.350;2024-01-07T00:31:46;3.30;64.60
1025;DHT22;501;48.214;11.350;2024-01-07T00:34:12;3.30;64.70
1025;DHT22;501;48.214;11.350;2024-01-07T00:36:37;3.30;64.50
1025;DHT22;501;48.214;11.350;2024-01-07T00:39:06;3.20;64.70
1025;DHT22;501;48.214;11.350;2024-01-07T00:41:31;3.30;64.70
1025;DHT22;501;48.214;11.350;2024-01-07T00:43:57;3.20;64.60
1025;DHT22;501;48.214;11.350;2024-01-07T00:46:23;3.20;64.80
1025;DHT22;501;48.214;11.350;2024-01-07T00:48:49;3.30;64.20
1025;DHT22;501;48.214;11.350;2024-01-07T00:51:15;3.30;63.90
1025;DHT22;501;48.214;11.350;2024-01-07T00:53:40;3.30;63.40
1025;DHT22;501;48.214;11.350;2024-01-07T00:56:06;3.30;63.00
1025;DHT22;501;48.214;11.350;2024-01-07T00:58:32;3.30;62.60
1025;DHT22;501;48.214;11.350;2024-01-07T01:00:58;3.20;61.80
1025;DHT22;501;48.214;11.350;2024-01-07T01:03:25;3.20;62.30
1025;DHT22;501;48.214;11.350;2024-01-07T01:05:52;3.20;62.70
1025;DHT22;501;48.214;11.350;2024-01-07T01:08:18;3.20;63.10
1025;DHT22;501;48.214;11.350;2024-01-07T01:10:44;3.20;63.10
1025;DHT22;501;48.214;11.350;2024-01-07T01:13:09;3.20;62.20
1025;DHT22;501;48.214;11.350;2024-01-07T01:15:35;3.20;62.30
1025;DHT22;501;48.214;11.350;2024-01-07T01:18:01;3.20;61.80
1025;DHT22;501;48.214;11.350;2024-01-07T01:20:26;3.20;61.40
1025;DHT22;501;48.214;11.350;2024-01-07T01:22:52;3.10;61.70
1025;DHT22;501;48.214;11.350;2024-01-07T01:25:17;3.20;61.80
1025;DHT22;501;48.214;11.350;2024-01-07T01:27:43;3.20;61.70
1025;DHT22;501;48.214;11.350;2024-01-07T01:30:11;3.10;61.30
1025;DHT22;501;48.214;11.350;2024-01-07T01:32:36;3.10;61.50
1025;DHT22;501;48.214;11.350;2024-01-07T01:35:02;3.10;61.60
1025;DHT22;501;48.214;11.350;2024-01-07T01:37:28;3.10;61.00
1025;DHT22;501;48.214;11.350;2024-01-07T01:39:54;3.10;61.00
1025;DHT22;501;48.214;11.350;2024-01-07T01:42:20;3.10;61.00
1025;DHT22;501;48.214;11.350;2024-01-07T01:44:46;3.10;61.60
1025;DHT22;501;48.214;11.350;2024-01-07T01:47:13;3.10;61.50
1025;DHT22;501;48.214;11.350;2024-01-07T01:49:39;3.10;61.00
1025;DHT22;501;48.214;11.350;2024-01-07T01:52:05;3.10;61.00
1025;DHT22;501;48.214;11.350;2024-01-07T01:54:31;3.10;61.00
1025;DHT22;501;48.214;11.350;2024-01-07T01:56:57;3.10;61.30
1025;DHT22;501;48.214;11.350;2024-01-07T01:59:23;3.10;61.00
1025;DHT22;501;48.214;11.350;2024-01-07T02:01:51;3.10;61.00
1025;DHT22;501;48.214;11.350;2024-01-07T02:04:17;3.10;61.00
1025;DHT22;501;48.214;11.350;2024-01-07T02:06:45;3.00;60.90
1025;DHT22;501;48.214;11.350;2024-01-07T02:09:11;3.10;61.00
1025;DHT22;501;48.214;11.350;2024-01-07T02:11:36;3.00;61.00
1025;DHT22;501;48.214;11.350;2024-01-07T02:14:02;3.00;60.90
1025;DHT22;501;48.214;11.350;2024-01-07T02:16:28;3.00;60.90
1025;DHT22;501;48.214;11.350;2024-01-07T02:18:53;3.00;60.90
1025;DHT22;501;48.214;11.350;2024-01-07T02:21:19;3.00;61.30
1025;DHT22;501;48.214;11.350;2024-01-07T02:23:44;2.90;61.30
1025;DHT22;501;48.214;11.350;2024-01-07T02:26:10;3.00;61.70
1025;DHT22;501;48.214;11.350;2024-01-07T02:28:36;3.00;61.80
1025;DHT22;501;48.214;11.350;2024-01-07T02:31:01;2.90;61.40
1025;DHT22;501;48.214;11.350;2024-01-07T02:33:27;2.90;61.70
1025;DHT22;501;48.214;11.350;2024-01-07T02:35:53;2.90;61.80
1025;DHT22;501;48.214;11.350;2024-01-07T02:38:19;2.90;62.30
1025;DHT22;501;48.214;11.350;2024-01-07T02:40:44;2.90;62.60
1025;DHT22;501;48.214;11.350;2024-01-07T02:43:10;2.90;62.80
1025;DHT22;501;48.214;11.350;2024-01-07T02:45:35;2.90;63.00
1025;DHT22;501;48.214;11.350;2024-01-07T02:48:01;2.90;62.90
1025;DHT22;501;48.214;11.350;2024-01-07T02:50:27;2.80;62.90
1025;DHT22;501;48.214;11.350;2024-01-07T02:52:53;2.90;63.20
1025;DHT22;501;48.214;11.350;2024-01-07T02:55:19;2.90;63.20
1025;DHT22;501;48.214;11.350;2024-01-07T02:57:44;2.90;63.40
1025;DHT22;501;48.214;11.350;2024-01-07T03:00:10;2.80;63.20
1025;DHT22;501;48.214;11.350;2024-01-07T03:02:36;2.80;62.80
1025;DHT22;501;48.214;11.350;2024-01-07T03:05:02;2.80;63.20
1025;DHT22;501;48.214;11.350;2024-01-07T03:07:27;2.80;63.80
1025;DHT22;501;48.214;11.350;2024-01-07T03:09:53;2.80;64.00
1025;DHT22;501;48.214;11.350;2024-01-07T03:12:19;2.80;64.10
1025;DHT22;501;48.214;11.350;2024-01-07T03:14:44;2.80;64.00
1025;DHT22;501;48.214;11.350;2024-01-07T03:17:11;2.80;64.00
1025;DHT22;501;48.214;11.350;2024-01-07T03:19:38;2.80;64.40
1025;DHT22;501;48.214;11.350;2024-01-07T03:22:04;2.80;64.70
1025;DHT22;501;48.214;11.350;2024-01-07T03:24:31;2.80;64.60
1025;DHT22;501;48.214;11.350;2024-01-07T03:26:56;2.80;64.90
1025;DHT22;501;48.214;11.350;2024-01-07T03:29:22;2.80;65.00
1025;DHT22;501;48.214;11.350;2024-01-07T03:31:48;2.80;65.00
1025;DHT22;501;48.214;11.350;2024-01-07T03:34:13;2.80;64.80
1025;DHT22;501;48.214;11.350;2024-01-07T03:36:39;2.80;64.90
1025;DHT22;501;48.214;11.350;2024-01-07T03:39:04;2.80;65.10
1025;DHT22;501;48.214;11.350;2024-01-07T03:41:30;2.80;64.70
1025;DHT22;501;48.214;11.350;2024-01-07T03:43:55;2.80;64.90
1025;DHT22;501;48.214;11.350;2024-01-07T03:46:22;2.80;65.80
1025;DHT22;501;48.214;11.350;2024-01-07T03:48:48;2.80;65.30
1025;DHT22;501;48.214;11.350;2024-01-07T03:51:13;2.80;65.10
1025;DHT22;501;48.214;11.350;2024-01-07T03:53:39;2.80;65.40
1025;DHT22;501;48.214;11.350;2024-01-07T03:56:05;2.90;65.50
1025;DHT22;501;48.214;11.350;2024-01-07T03:58:31;2.90;65.60
1025;DHT22;501;48.214;11.350;2024-01-07T04:00:57;2.90;65.30
1025;DHT22;501;48.214;11.350;2024-01-07T04:03:23;2.80;65.30
1025;DHT22;501;48.214;11.350;2024-01-07T04:05:49;2.90;65.50
1025;DHT22;501;48.214;11.350;2024-01-07T04:08:14;2.90;65.80
1025;DHT22;501;48.214;11.350;2024-01-07T04:10:42;2.80;65.60
1025;DHT22;501;48.214;11.350;2024-01-07T04:13:08;2.80;66.00
1025;DHT22;501;48.214;11.350;2024-01-07T04:15:34;2.80;66.40
1025;DHT22;501;48.214;11.350;2024-01-07T04:18:03;2.80;66.80
1025;DHT22;501;48.214;11.350;2024-01-07T04:20:30;2.80;67.20
1025;DHT22;501;48.214;11.350;2024-01-07T04:22:56;2.80;68.00
1025;DHT22;501;48.214;11.350;2024-01-07T04:25:22;2.80;68.70
1025;DHT22;501;48.214;11.350;2024-01-07T04:27:48;2.80;69.00
1025;DHT22;501;48.214;11.350;2024-01-07T04:30:13;2.80;69.00
1025;DHT22;501;48.214;11.350;2024-01-07T04:32:39;2.80;69.50
1025;DHT22;501;48.214;11.350;2024-01-07T04:35:05;2.80;69.90
1025;DHT22;501;48.214;11.350;2024-01-07T04:37:33;2.80;70.40
1025;DHT22;501;48.214;11.350;2024-01-07T04:39:58;2.70;70.60
1025;DHT22;501;48.214;11.350;2024-01-07T04:42:24;2.70;71.60
1025;DHT22;501;48.214;11.350;2024-01-07T04:44:50;2.80;72.00
1025;DHT22;501;48.214;11.350;2024-01-07T04:47:28;2.80;72.20
1025;DHT22;501;48.214;11.350;2024-01-07T04:49:55;2.80;72.40
1025;DHT22;501;48.214;11.350;2024-01-07T04:52:24;2.80;72.70
1025;DHT22;501;48.214;11.350;2024-01-07T04:54:54;2.80;73.00
1025;DHT22;501;48.214;11.350;2024-01-07T04:57:20;2.90;74.00
1025;DHT22;501;48.214;11.350;2024-01-07T04:59:47;2.80;72.80
1025;DHT22;501;48.214;11.350;2024-01-07T05:02:13;2.80;71.90
1025;DHT22;501;48.214;11.350;2024-01-07T05:04:39;2.80;71.50
1025;DHT22;501;48.214;11.350;2024-01-07T05:07:05;2.90;71.10
1025;DHT22;501;48.214;11.350;2024-01-07T05:09:32;2.80;70.90
1025;DHT22;501;48.214;11.350;2024-01-07T05:11:57;2.80;70.40
1025;DHT22;501;48.214;11.350;2024-01-07T05:14:23;2.80;70.60
1025;DHT22;501;48.214;11.350;2024-01-07T05:16:49;2.80;70.60
1025;DHT22;501;48.214;11.350;2024-01-07T05:19:14;2.70;70.90
1025;DHT22;501;48.214;11.350;2024-01-07T05:21:40;2.80;70.40
1025;DHT22;501;48.214;11.350;2024-01-07T05:24:06;2.80;70.60
1025;DHT22;501;48.214;11.350;2024-01-07T05:26:38;2.80;70.60
1025;DHT22;501;48.214;11.350;2024-01-07T05:29:04;2.80;70.10
1025;DHT22;501;48.214;11.350;2024-01-07T05:31:30;2.70;69.90
1025;DHT22;501;48.214;11.350;2024-01-07T05:33:56;2.70;69.90
1025;DHT22;501;48.214;11.350;2024-01-07T05:36:21;2.80;69.60
1025;DHT22;501;48.214;11.350;2024-01-07T05:38:47;2.80;69.10
1025;DHT22;501;48.214;11.350;2024-01-07T05:41:13;2.80;69.10
1025;DHT22;501;48.214;11.350;2024-01-07T05:43:38;2.80;69.00
1025;DHT22;501;48.214;11.350;2024-01-07T05:46:04;2.80;68.60
1025;DHT22;501;48.214;11.350;2024-01-07T05:48:35;2.80;69.00
1025;DHT22;501;48.214;11.350;2024-01-07T05:51:05;2.80;69.00
1025;DHT22;501;48.214;11.350;2024-01-07T05:53:31;2.80;69.00
1025;DHT22;501;48.214;11.350;2024-01-07T05:55:57;2.80;68.90
1025;DHT22;501;48.214;11.350;2024-01-07T05:58:22;2.80;69.00
1025;DHT22;501;48.214;11.350;2024-01-07T06:00:48;2.80;68.90
1025;DHT22;501;48.214;11.350;2024-01-07T06:03:14;2.80;68.50
1025;DHT22;501;48.214;11.350;2024-01-07T06:05:39;2.80;68.50
1025;DHT22;501;48.214;11.350;2024-01-07T06:08:06;2.90;68.30
1025;DHT22;501;48.214;11.350;2024-01-07T06:10:31;2.80;68.40
1025;DHT22;501;48.214;11.350;2024-01-07T06:12:57;2.90;68.70
1025;DHT22;501;48.214;11.350;2024-01-07T06:15:22;2.90;68.30
1025;DHT22;501;48.214;11.350;2024-01-07T06:17:48;2.90;67.80
1025;DHT22;501;48.214;11.350;2024-01-07T06:20:14;2.90;67.30
1025;DHT22;501;48.214;11.350;2024-01-07T06:22:40;2.80;67.30
1025;DHT22;501;48.214;11.350;2024-01-07T06:25:06;2.80;67.90
1025;DHT22;501;48.214;11.350;2024-01-07T06:27:31;2.80;67.90
1025;DHT22;501;48.214;11.350;2024-01-07T06:29:57;2.80;67.40
1025;DHT22;501;48.214;11.350;2024-01-07T06:32:23;2.80;67.60
1025;DHT22;501;48.214;11.350;2024-01-07T06:34:50;2.80;67.60
1025;DHT22;501;48.214;11.350;2024-01-07T06:37:17;2.80;67.50
1025;DHT22;501;48.214;11.350;2024-01-07T06:39:42;2.80;67.90
1025;DHT22;501;48.214;11.350;2024-01-07T06:42:08;2.80;68.00
1025;DHT22;501;48.214;11.350;2024-01-07T06:44:33;2.80;67.30
1025;DHT22;501;48.214;11.350;2024-01-07T06:46:59;2.80;67.20
1025;DHT22;501;48.214;11.350;2024-01-07T06:49:25;2.80;67.10
1025;DHT22;501;48.214;11.350;2024-01-07T06:51:50;2.80;67.00
1025;DHT22;501;48.214;11.350;2024-01-07T06:54:16;2.80;67.30
1025;DHT22;501;48.214;11.350;2024-01-07T06:56:41;2.80;67.40
1025;DHT22;501;48.214;11.350;2024-01-07T06:59:08;2.70;67.10
1025;DHT22;501;48.214;11.350;2024-01-07T07:01:34;2.80;66.90
1025;DHT22;501;48.214;11.350;2024-01-07T07:03:59;2.70;66.80
1025;DHT22;501;48.214;11.350;2024-01-07T07:06:26;2.70;67.00
1025;DHT22;501;48.214;11.350;2024-01-07T07:08:51;2.70;66.90
1025;DHT22;501;48.214;11.350;2024-01-07T07:11:17;2.70;66.80
1025;DHT22;501;48.214;11.350;2024-01-07T07:13:42;2.70;66.70
1025;DHT22;501;48.214;11.350;2024-01-07T07:16:08;2.70;66.30
1025;DHT22;501;48.214;11.350;2024-01-07T07:18:34;2.70;66.20
1025;DHT22;501;48.214;11.350;2024-01-07T07:21:00;2.80;66.00
1025;DHT22;501;48.214;11.350;2024-01-07T07:23:25;2.70;65.90
1025;DHT22;501;48.214;11.350;2024-01-07T07:25:51;2.80;65.80
1025;DHT22;501;48.214;11.350;2024-01-07T07:28:17;2.80;65.40
1025;DHT22;501;48.214;11.350;2024-01-07T07:30:43;2.80;65.50
1025;DHT22;501;48.214;11.350;2024-01-07T07:33:08;2.80;65.40
1025;DHT22;501;48.214;11.350;2024-01-07T07:35:34;2.80;65.00
1025;DHT22;501;48.214;11.350;2024-01-07T07:38:00;2.80;65.00
1025;DHT22;501;48.214;11.350;2024-01-07T07:40:25;2.80;64.90
1025;DHT22;501;48.214;11.350;2024-01-07T07:42:51;2.70;64.80
1025;DHT22;501;48.214;11.350;2024-01-07T07:45:16;2.70;64.90
1025;DHT22;501;48.214;11.350;2024-01-07T07:47:44;2.70;65.10
1025;DHT22;501;48.214;11.350;2024-01-07T07:50:11;2.70;65.10
1025;DHT22;501;48.214;11.350;2024-01-07T07:52:36;2.80;65.00
1025;DHT22;501;48.214;11.350;2024-01-07T07:55:02;2.70;64.80
1025;DHT22;501;48.214;11.350;2024-01-07T07:57:28;2.70;64.80
1025;DHT22;501;48.214;11.350;2024-01-07T07:59:54;2.70;64.40
1025;DHT22;501;48.214;11.350;2024-01-07T08:02:20;2.80;64.20
1025;DHT22;501;48.214;11.350;2024-01-07T08:04:46;2.70;64.10
1025;DHT22;501;48.214;11.350;2024-01-07T08:07:12;2.70;64.30
1025;DHT22;501;48.214;11.350;2024-01-07T08:09:38;2.70;64.20
1025;DHT22;501;48.214;11.350;2024-01-07T08:12:04;2.70;64.10
1025;DHT22;501;48.214;11.350;2024-01-07T08:14:31;2.70;64.40
1025;DHT22;501;48.214;11.350;2024-01-07T08:16:57;2.70;64.40
1025;DHT22;501;48.214;11.350;2024-01-07T08:19:23;2.70;64.40
1025;DHT22;501;48.214;11.350;2024-01-07T08:21:49;2.60;64.60
1025;DHT22;501;48.214;11.350;2024-01-07T08:24:14;2.60;65.10
1025;DHT22;501;48.214;11.350;2024-01-07T08:26:40;2.70;64.70
1025;DHT22;501;48.214;11.350;2024-01-07T08:29:06;2.70;64.60
1025;DHT22;501;48.214;11.350;2024-01-07T08:31:32;2.70;64.40
1025;DHT22;501;48.214;11.350;2024-01-07T08:33:58;2.70;64.60
1025;DHT22;501;48.214;11.350;2024-01-07T08:36:23;2.60;64.70
1025;DHT22;501;48.214;11.350;2024-01-07T08:38:49;2.60;64.80
1025;DHT22;501;48.214;11.350;2024-01-07T08:41:15;2.70;64.80
1025;DHT22;501;48.214;11.350;2024-01-07T08:43:41;2.70;64.70
1025;DHT22;501;48.214;11.350;2024-01-07T08:46:07;2.70;64.70
1025;DHT22;501;48.214;11.350;2024-01-07T08:48:36;2.60;64.70
1025;DHT22;501;48.214;11.350;2024-01-07T08:51:02;2.60;64.40
1025;DHT22;501;48.214;11.350;2024-01-07T08:53:28;2.70;64.60
1025;DHT22;501;48.214;11.350;2024-01-07T08:55:54;2.70;64.40
1025;DHT22;501;48.214;11.350;2024-01-07T08:58:20;2.70;64.30
1025;DHT22;501;48.214;11.350;2024-01-07T09:00:45;2.60;64.70
1025;DHT22;501;48.214;11.350;2024-01-07T09:03:11;2.60;65.10
1025;DHT22;501;48.214;11.350;2024-01-07T09:05:39;2.70;65.40
1025;DHT22;501;48.214;11.350;2024-01-07T09:08:05;2.70;65.40
1025;DHT22;501;48.214;11.350;2024-01-07T09:10:32;2.70;65.40
1025;DHT22;501;48.214;11.350;2024-01-07T09:12:59;2.70;65.00
1025;DHT22;501;48.214;11.350;2024-01-07T09:15:24;2.70;64.90
1025;DHT22;501;48.214;11.350;2024-01-07T09:17:50;2.70;64.80
1025;DHT22;501;48.214;11.350;2024-01-07T09:20:16;2.70;64.50
1025;DHT22;501;48.214;11.350;2024-01-07T09:22:41;2.70;64.10
1025;DHT22;501;48.214;11.350;2024-01-07T09:25:09;2.80;64.00
1025;DHT22;501;48.214;11.350;2024-01-07T09:27:34;2.80;63.80
1025;DHT22;501;48.214;11.350;2024-01-07T09:30:00;2.80;63.70
1025;DHT22;501;48.214;11.350;2024-01-07T09:32:26;2.80;63.40
1025;DHT22;501;48.214;11.350;2024-01-07T09:34:53;2.80;63.30
1025;DHT22;501;48.214;11.350;2024-01-07T09:37:19;2.80;63.30
1025;DHT22;501;48.214;11.350;2024-01-07T09:39:45;2.80;63.50
1025;DHT22;501;48.214;11.350;2024-01-07T09:42:15;2.80;63.40
1025;DHT22;501;48.214;11.350;2024-01-07T09:44:42;2.90;62.90
1025;DHT22;501;48.214;11.350;2024-01-07T09:47:14;2.90;62.90
1025;DHT22;501;48.214;11.350;2024-01-07T09:49:41;2.90;62.80
1025;DHT22;501;48.214;11.350;2024-01-07T09:52:09;2.90;62.80
1025;DHT22;501;48.214;11.350;2024-01-07T09:54:39;2.90;62.60
1025;DHT22;501;48.214;11.350;2024-01-07T09:57:06;2.80;62.20
1025;DHT22;501;48.214;11.350;2024-01-07T09:59:32;2.80;62.10
1025;DHT22;501;48.214;11.350;2024-01-07T10:01:58;2.80;62.60
1025;DHT22;501;48.214;11.350;2024-01-07T10:04:25;2.80;62.10
1025;DHT22;501;48.214;11.350;2024-01-07T10:06:51;2.90;62.40
1025;DHT22;501;48.214;11.350;2024-01-07T10:09:19;2.90;62.40
1025;DHT22;501;48.214;11.350;2024-01-07T10:11:47;2.90;62.20
1025;DHT22;501;48.214;11.350;2024-01-07T10:14:13;2.90;62.10
1025;DHT22;501;48.214;11.350;2024-01-07T10:16:39;2.90;62.00
1025;DHT22;501;48.214;11.350;2024-01-07T10:19:04;2.90;62.00
1025;DHT22;501;48.214;11.350;2024-01-07T10:21:30;2.90;62.10
1025;DHT22;501;48.214;11.350;2024-01-07T10:24:10;2.90;61.80
1025;DHT22;501;48.214;11.350;2024-01-07T10:26:37;2.90;61.80
1025;DHT22;501;48.214;11.350;2024-01-07T10:29:04;2.90;61.90
1025;DHT22;501;48.214;11.350;2024-01-07T10:31:29;2.90;61.70
1025;DHT22;501;48.214;11.350;2024-01-07T10:33:56;3.00;61.70
1025;DHT22;501;48.214;11.350;2024-01-07T10:36:22;3.00;61.50
1025;DHT22;501;48.214;11.350;2024-01-07T10:38:50;3.00;60.90
1025;DHT22;501;48.214;11.350;2024-01-07T10:41:18;3.00;60.90
1025;DHT22;501;48.214;11.350;2024-01-07T10:43:46;3.00;60.90
1025;DHT22;501;48.214;11.350;2024-01-07T10:46:13;3.00;60.50
1025;DHT22;501;48.214;11.350;2024-01-07T10:48:48;2.90;59.80
1025;DHT22;501;48.214;11.350;2024-01-07T10:51:16;2.90;60.00
1025;DHT22;501;48.214;11.350;2024-01-07T10:53:46;2.90;60.50
1025;DHT22;501;48.214;11.350;2024-01-07T10:56:19;2.90;60.80
1025;DHT22;501;48.214;11.350;2024-01-07T10:58:48;2.90;60.80
1025;DHT22;501;48.214;11.350;2024-01-07T11:01:14;2.90;60.80
1025;DHT22;501;48.214;11.350;2024-01-07T11:06:31;2.90;61.60
1025;DHT22;501;48.214;11.350;2024-01-07T11:09:03;2.80;60.80
1025;DHT22;501;48.214;11.350;2024-01-07T11:11:39;2.80;60.80
1025;DHT22;501;48.214;11.350;2024-01-07T11:14:39;2.80;61.50
1025;DHT22;501;48.214;11.350;2024-01-07T11:17:08;2.80;62.00
1025;DHT22;501;48.214;11.350;2024-01-07T11:19:38;2.80;62.00
1025;DHT22;501;48.214;11.350;2024-01-07T11:24:56;2.80;61.30
1025;DHT22;501;48.214;11.350;2024-01-07T11:27:23;2.70;62.00
1025;DHT22;501;48.214;11.350;2024-01-07T11:29:56;2.70;62.60
1025;DHT22;501;48.214;11.350;2024-01-07T11:32:33;2.70;62.50
1025;DHT22;501;48.214;11.350;2024-01-07T11:34:59;2.60;62.10
1025;DHT22;501;48.214;11.350;2024-01-07T11:37:25;2.60;62.50
1025;DHT22;501;48.214;11.350;2024-01-07T11:39:55;2.60;62.60
1025;DHT22;501;48.214;11.350;2024-01-07T11:42:22;2.60;63.10
1025;DHT22;501;48.214;11.350;2024-01-07T11:44:55;2.70;63.60
1025;DHT22;501;48.214;11.350;2024-01-07T11:47:22;2.70;62.90
1025;DHT22;501;48.214;11.350;2024-01-07T11:49:48;2.60;62.90
1025;DHT22;501;48.214;11.350;2024-01-07T11:52:15;2.60;62.20
1025;DHT22;501;48.214;11.350;2024-01-07T11:54:41;2.60;61.10
1025;DHT22;501;48.214;11.350;2024-01-07T11:57:07;2.50;61.30
1025;DHT22;501;48.214;11.350;2024-01-07T11:59:34;2.50;61.90
1025;DHT22;501;48.214;11.350;2024-01-07T12:02:00;2.50;62.90
1025;DHT22;501;48.214;11.350;2024-01-07T12:04:26;2.40;63.30
1025;DHT22;501;48.214;11.350;2024-01-07T12:06:52;2.40;64.40
1025;DHT22;501;48.214;11.350;2024-01-07T12:09:18;2.40;64.70
1025;DHT22;501;48.214;11.350;2024-01-07T12:11:46;2.50;64.70
1025;DHT22;501;48.214;11.350;2024-01-07T12:14:12;2.50;64.40
1025;DHT22;501;48.214;11.350;2024-01-07T12:16:38;2.50;64.10
1025;DHT22;501;48.214;11.350;2024-01-07T12:19:04;2.50;64.00
1025;DHT22;501;48.214;11.350;2024-01-07T12:21:30;2.50;62.40
1025;DHT22;501;48.214;11.350;2024-01-07T12:23:56;2.50;62.00
1025;DHT22;501;48.214;11.350;2024-01-07T12:26:26;2.40;61.40
1025;DHT22;501;48.214;11.350;2024-01-07T12:28:59;2.40;61.80
1025;DHT22;501;48.214;11.350;2024-01-07T12:31:32;2.40;61.70
1025;DHT22;501;48.214;11.350;2024-01-07T12:33:58;2.40;61.80
1025;DHT22;501;48.214;11.350;2024-01-07T12:36:24;2.40;60.50
1025;DHT22;501;48.214;11.350;2024-01-07T12:38:51;2.40;61.10
1025;DHT22;501;48.214;11.350;2024-01-07T12:41:19;2.30;60.30
1025;DHT22;501;48.214;11.350;2024-01-07T12:43:45;2.30;60.30
1025;DHT22;501;48.214;11.350;2024-01-07T12:46:11;2.30;60.30
1025;DHT22;501;48.214;11.350;2024-01-07T12:48:36;2.30;61.00
1025;DHT22;501;48.214;11.350;2024-01-07T12:51:02;2.30;61.30
1025;DHT22;501;48.214;11.350;2024-01-07T12:53:28;2.30;61.70
1025;DHT22;501;48.214;11.350;2024-01-07T12:55:54;2.30;60.70
1025;DHT22;501;48.214;11.350;2024-01-07T12:58:20;2.30;60.30
1025;DHT22;501;48.214;11.350;2024-01-07T13:00:46;2.30;60.40
1025;DHT22;501;48.214;11.350;2024-01-07T13:03:12;2.30;60.70
1025;DHT22;501;48.214;11.350;2024-01-07T13:05:39;2.30;60.30
1025;DHT22;501;48.214;11.350;2024-01-07T13:08:07;2.30;60.70
1025;DHT22;501;48.214;11.350;2024-01-07T13:10:33;2.30;60.30
1025;DHT22;501;48.214;11.350;2024-01-07T13:12:59;2.30;60.30
1025;DHT22;501;48.214;11.350;2024-01-07T13:15:24;2.30;60.30
1025;DHT22;501;48.214;11.350;2024-01-07T13:17:50;2.30;60.50
1025;DHT22;501;48.214;11.350;2024-01-07T13:20:16;2.30;60.30
1025;DHT22;501;48.214;11.350;2024-01-07T13:22:45;2.20;60.20
1025;DHT22;501;48.214;11.350;2024-01-07T13:25:12;2.20;60.20
1025;DHT22;501;48.214;11.350;2024-01-07T13:27:37;2.20;59.50
1025;DHT22;501;48.214;11.350;2024-01-07T13:30:06;2.20;60.20
1025;DHT22;501;48.214;11.350;2024-01-07T13:32:32;2.20;60.20
1025;DHT22;501;48.214;11.350;2024-01-07T13:35:02;2.20;60.20
1025;DHT22;501;48.214;11.350;2024-01-07T13:37:28;2.20;60.20
1025;DHT22;501;48.214;11.350;2024-01-07T13:39:54;2.20;60.80
1025;DHT22;501;48.214;11.350;2024-01-07T13:42:19;2.20;60.20
1025;DHT22;501;48.214;11.350;2024-01-07T13:44:45;2.10;60.10
1025;DHT22;501;48.214;11.350;2024-01-07T13:47:12;2.20;59.70
1025;DHT22;501;48.214;11.350;2024-01-07T13:49:42;2.20;59.90
1025;DHT22;501;48.214;11.350;2024-01-07T13:52:10;2.10;59.00
1025;DHT22;501;48.214;11.350;2024-01-07T13:54:36;2.10;58.50
1025;DHT22;501;48.214;11.350;2024-01-07T13:57:03;2.00;58.20
1025;DHT22;501;48.214;11.350;2024-01-07T13:59:29;1.90;58.20
1025;DHT22;501;48.214;11.350;2024-01-07T14:01:55;1.90;58.20
1025;DHT22;501;48.214;11.350;2024-01-07T14:04:23;1.90;59.40
1025;DHT22;501;48.214;11.350;2024-01-07T14:06:56;1.80;59.10
1025;DHT22;501;48.214;11.350;2024-01-07T14:09:22;1.80;58.90
1025;DHT22;501;48.214;11.350;2024-01-07T14:11:48;1.80;59.40
1025;DHT22;501;48.214;11.350;2024-01-07T14:14:14;1.80;58.50
1025;DHT22;501;48.214;11.350;2024-01-07T14:16:39;1.80;58.20
1025;DHT22;501;48.214;11.350;2024-01-07T14:19:06;1.80;59.10
1025;DHT22;501;48.214;11.350;2024-01-07T14:21:31;1.70;59.80
1025;DHT22;501;48.214;11.350;2024-01-07T14:23:57;1.70;59.80
1025;DHT22;501;48.214;11.350;2024-01-07T14:26:23;1.70;60.60
1025;DHT22;501;48.214;11.350;2024-01-07T14:28:49;1.60;61.10
1025;DHT22;501;48.214;11.350;2024-01-07T14:31:16;1.60;61.30
1025;DHT22;501;48.214;11.350;2024-01-07T14:33:43;1.60;61.00
1025;DHT22;501;48.214;11.350;2024-01-07T14:36:09;1.60;61.50
1025;DHT22;501;48.214;11.350;2024-01-07T14:38:45;1.60;61.10
1025;DHT22;501;48.214;11.350;2024-01-07T14:41:14;1.60;60.30
1025;DHT22;501;48.214;11.350;2024-01-07T14:43:41;1.60;59.70
1025;DHT22;501;48.214;11.350;2024-01-07T14:46:07;1.60;58.20
1025;DHT22;501;48.214;11.350;2024-01-07T14:48:33;1.60;57.60
1025;DHT22;501;48.214;11.350;2024-01-07T14:50:59;1.50;57.80
1025;DHT22;501;48.214;11.350;2024-01-07T14:53:25;1.50;57.30
1025;DHT22;501;48.214;11.350;2024-01-07T14:55:51;1.40;56.50
1025;DHT22;501;48.214;11.350;2024-01-07T14:58:17;1.40;57.20
1025;DHT22;501;48.214;11.350;2024-01-07T15:00:43;1.40;58.00
1025;DHT22;501;48.214;11.350;2024-01-07T15:03:09;1.40;58.30
1025;DHT22;501;48.214;11.350;2024-01-07T15:05:35;1.40;58.60
1025;DHT22;501;48.214;11.350;2024-01-07T15:08:01;1.40;58.80
1025;DHT22;501;48.214;11.350;2024-01-07T15:10:26;1.40;58.60
1025;DHT22;501;48.214;11.350;2024-01-07T15:12:52;1.40;59.50
1025;DHT22;501;48.214;11.350;2024-01-07T15:15:17;1.40;58.80
1025;DHT22;501;48.214;11.350;2024-01-07T15:17:46;1.40;59.50
1025;DHT22;501;48.214;11.350;2024-01-07T15:20:11;1.40;59.50
1025;DHT22;501;48.214;11.350;2024-01-07T15:22:37;1.50;58.90
1025;DHT22;501;48.214;11.350;2024-01-07T15:25:03;1.50;57.80
1025;DHT22;501;48.214;11.350;2024-01-07T15:27:29;1.40;58.10
1025;DHT22;501;48.214;11.350;2024-01-07T15:29:56;1.40;57.40
1025;DHT22;501;48.214;11.350;2024-01-07T15:32:21;1.40;56.80
1025;DHT22;501;48.214;11.350;2024-01-07T15:34:47;1.30;57.30
1025;DHT22;501;48.214;11.350;2024-01-07T15:37:13;1.30;58.10
1025;DHT22;501;48.214;11.350;2024-01-07T15:39:38;1.30;58.60
1025;DHT22;501;48.214;11.350;2024-01-07T15:42:04;1.30;58.60
1025;DHT22;501;48.214;11.350;2024-01-07T15:44:30;1.30;58.30
1025;DHT22;501;48.214;11.350;2024-01-07T15:46:56;1.20;58.40
1025;DHT22;501;48.214;11.350;2024-01-07T15:49:22;1.20;58.80
1025;DHT22;501;48.214;11.350;2024-01-07T15:51:48;1.20;59.30
1025;DHT22;501;48.214;11.350;2024-01-07T15:54:13;1.20;59.40
1025;DHT22;501;48.214;11.350;2024-01-07T15:56:39;1.20;59.40
1025;DHT22;501;48.214;11.350;2024-01-07T15:59:05;1.10;59.30
1025;DHT22;501;48.214;11.350;2024-01-07T16:01:30;1.10;59.60
1025;DHT22;501;48.214;11.350;2024-01-07T16:03:56;1.10;60.40
1025;DHT22;501;48.214;11.350;2024-01-07T16:06:21;1.10;60.30
1025;DHT22;501;48.214;11.350;2024-01-07T16:08:47;1.10;60.40
1025;DHT22;501;48.214;11.350;2024-01-07T16:11:13;1.10;59.60
1025;DHT22;501;48.214;11.350;2024-01-07T16:13:42;1.20;59.40
1025;DHT22;501;48.214;11.350;2024-01-07T16:16:08;1.20;59.30